Time;durP1;ratioP1;P1;durP2;ratioP2;P2;SDS_P1;SDS_P2;PMS_P1;PMS_P2;Temp;Humidity;BMP_temperature;BMP_pressure;BME280_temperature;BME280_humidity;BME280_pressure;Samples;Min_cycle;Max_cycle;Signal;HPM_P1;HPM_P2
2023/02/25 00:02:09;;;;;;;0.70;0.70;;;5.40;90.40;;;;;;5103741;28;20035;-65
2023/02/25 00:04:34;;;;;;;1.65;1.10;;;5.50;90.40;;;;;;5108740;28;20038;-65
2023/02/25 00:07:01;;;;;;;1.42;0.75;;;5.50;90.40;;;;;;5105147;27;20490;-65
2023/02/25 00:09:28;;;;;;;0.80;0.80;;;5.50;90.40;;;;;;5107901;27;20059;-66
2023/02/25 00:11:53;;;;;;;1.67;0.95;;;5.50;90.40;;;;;;5106194;27;20020;-66
2023/02/25 00:14:19;;;;;;;0.90;0.80;;;5.40;90.40;;;;;;5103516;27;20038;-66
2023/02/25 00:16:44;;;;;;;0.82;0.70;;;5.40;90.40;;;;;;5098944;28;20161;-66
2023/02/25 00:19:10;;;;;;;1.55;1.20;;;5.50;90.50;;;;;;5104248;28;20015;-66
2023/02/25 00:21:36;;;;;;;0.95;0.82;;;5.50;90.40;;;;;;5108076;27;20374;-66
2023/02/25 00:24:02;;;;;;;0.50;0.50;;;5.40;90.70;;;;;;5111310;27;20034;-67
2023/02/25 00:26:28;;;;;;;0.80;0.80;;;5.40;90.40;;;;;;5107539;28;20035;-67
2023/02/25 00:28:54;;;;;;;1.05;0.90;;;5.50;90.50;;;;;;5105710;27;20432;-66
2023/02/25 00:31:22;;;;;;;1.73;0.93;;;5.50;90.50;;;;;;5108441;27;20020;-65
2023/02/25 00:33:49;;;;;;;0.93;0.80;;;5.60;90.50;;;;;;5107805;28;20023;-66
2023/02/25 00:36:21;;;;;;;0.73;0.60;;;5.60;90.40;;;;;;5108033;28;20080;-68
2023/02/25 00:38:52;;;;;;;0.65;0.65;;;5.50;90.40;;;;;;5108826;27;20561;-66
2023/02/25 00:41:20;;;;;;;0.52;0.52;;;5.60;90.40;;;;;;5110006;28;20516;-67
2023/02/25 00:43:52;;;;;;;0.60;0.60;;;5.60;90.40;;;;;;5105322;27;20028;-66
2023/02/25 00:46:18;;;;;;;0.63;0.63;;;5.60;90.40;;;;;;5111690;27;20489;-67
2023/02/25 00:48:44;;;;;;;0.70;0.70;;;5.60;90.40;;;;;;5109685;27;20265;-66
2023/02/25 00:51:15;;;;;;;1.85;0.60;;;5.60;90.50;;;;;;5104643;28;20027;-66
2023/02/25 00:53:43;;;;;;;0.60;0.60;;;5.60;90.50;;;;;;5110256;28;20517;-66
2023/02/25 00:56:14;;;;;;;1.35;0.70;;;5.60;90.40;;;;;;5107880;27;20615;-66
2023/02/25 00:58:41;;;;;;;0.98;0.80;;;5.60;90.40;;;;;;5106982;27;20434;-67
2023/02/25 01:01:19;;;;;;;1.25;0.75;;;5.60;90.40;;;;;;5112790;27;20093;-65
2023/02/25 01:03:44;;;;;;;0.93;0.63;;;5.60;90.40;;;;;;5108561;27;20027;-66
2023/02/25 01:06:10;;;;;;;0.73;0.73;;;5.60;90.40;;;;;;5114871;27;20027;-69
2023/02/25 01:08:36;;;;;;;1.65;1.35;;;5.60;90.40;;;;;;5111724;27;20063;-66
2023/02/25 01:11:12;;;;;;;2.35;1.20;;;5.50;90.40;;;;;;5111315;28;20087;-68
2023/02/25 01:13:38;;;;;;;1.15;1.00;;;5.50;90.40;;;;;;5117622;27;20052;-67
2023/02/25 01:16:13;;;;;;;1.85;0.82;;;5.40;90.40;;;;;;5110032;27;20031;-66
2023/02/25 01:18:39;;;;;;;2.72;0.90;;;5.30;90.40;;;;;;5110939;27;20023;-67
2023/02/25 01:21:05;;;;;;;4.05;1.15;;;5.30;90.50;;;;;;5113038;27;20032;-67
2023/02/25 01:23:30;;;;;;;2.50;0.80;;;5.30;90.60;;;;;;5113939;27;20034;-67
2023/02/25 01:25:56;;;;;;;0.70;0.70;;;5.20;90.60;;;;;;5113658;27;20019;-66
2023/02/25 01:28:21;;;;;;;1.48;1.20;;;5.20;90.60;;;;;;5102120;27;20015;-66
2023/02/25 01:30:47;;;;;;;1.20;0.82;;;5.20;90.70;;;;;;5110150;27;20052;-66
2023/02/25 01:33:12;;;;;;;1.40;0.70;;;5.20;90.70;;;;;;5112809;27;20039;-66
2023/02/25 01:35:38;;;;;;;2.80;0.73;;;5.20;90.70;;;;;;5111867;27;20032;-65
2023/02/25 01:38:04;;;;;;;2.22;0.90;;;5.20;90.70;;;;;;5104733;27;20043;-66
2023/02/25 01:40:29;;;;;;;0.93;0.85;;;5.20;90.70;;;;;;5110142;27;20023;-67
2023/02/25 01:42:55;;;;;;;1.27;1.17;;;5.20;90.70;;;;;;5103020;28;20040;-65
2023/02/25 01:45:28;;;;;;;1.48;0.88;;;5.20;90.70;;;;;;5105434;27;20035;-65
2023/02/25 01:48:00;;;;;;;0.93;0.65;;;5.10;90.70;;;;;;5106183;28;20027;-66
2023/02/25 01:50:32;;;;;;;1.77;0.82;;;5.10;90.70;;;;;;5101488;27;20015;-65
2023/02/25 01:53:00;;;;;;;2.70;0.98;;;5.10;91.00;;;;;;5104362;28;20493;-65
2023/02/25 01:55:26;;;;;;;2.00;0.80;;;5.10;90.70;;;;;;5106784;27;20023;-65
2023/02/25 01:57:51;;;;;;;1.13;0.73;;;5.10;90.70;;;;;;5103996;28;20035;-67
2023/02/25 02:00:17;;;;;;;0.60;0.60;;;5.10;90.70;;;;;;5103388;28;20428;-67
2023/02/25 02:02:46;;;;;;;1.90;1.08;;;5.10;90.70;;;;;;5104233;28;20040;-65
2023/02/25 02:05:11;;;;;;;0.70;0.70;;;5.10;90.70;;;;;;5107542;27;20098;-68
2023/02/25 02:07:37;;;;;;;3.20;1.02;;;5.20;90.70;;;;;;5101840;27;20119;-66
2023/02/25 02:10:05;;;;;;;2.08;0.80;;;5.10;90.60;;;;;;5106197;27;20024;-66
2023/02/25 02:12:35;;;;;;;1.40;0.70;;;5.10;90.60;;;;;;5108798;27;20031;-66
2023/02/25 02:15:06;;;;;;;1.20;0.68;;;5.10;90.70;;;;;;5108548;28;20028;-66
2023/02/25 02:17:44;;;;;;;1.65;0.70;;;5.20;90.60;;;;;;5107208;27;20027;-67
2023/02/25 02:20:38;;;;;;;2.38;0.73;;;5.20;90.60;;;;;;5104277;27;20027;-66
2023/02/25 02:23:34;;;;;;;1.27;0.98;;;5.30;90.60;;;;;;5098947;27;20040;-65
2023/02/25 02:26:27;;;;;;;0.93;0.80;;;5.30;90.60;;;;;;5107486;27;20032;-68
2023/02/25 02:29:15;;;;;;;0.88;0.88;;;5.40;90.50;;;;;;5111498;27;20069;-65
2023/02/25 02:31:51;;;;;;;0.77;0.60;;;5.40;90.50;;;;;;5109577;27;20028;-65
2023/02/25 02:34:28;;;;;;;0.98;0.80;;;5.40;90.50;;;;;;5102349;27;20027;-65
2023/02/25 02:37:11;;;;;;;0.85;0.50;;;5.40;90.40;;;;;;5102839;28;20513;-67
2023/02/25 02:39:37;;;;;;;0.50;0.50;;;5.50;90.50;;;;;;5104974;28;20027;-66
2023/02/25 02:42:15;;;;;;;0.63;0.50;;;5.50;90.40;;;;;;5104216;28;20041;-66
2023/02/25 02:44:59;;;;;;;1.85;0.70;;;5.50;90.40;;;;;;5105385;28;20050;-67
2023/02/25 02:47:39;;;;;;;0.82;0.60;;;5.50;90.40;;;;;;5107533;27;20024;-66
2023/02/25 02:50:35;;;;;;;0.90;0.82;;;5.50;90.40;;;;;;5100863;28;20050;-65
2023/02/25 02:53:09;;;;;;;8.70;1.05;;;5.50;90.50;;;;;;5085464;27;20047;-67
2023/02/25 02:55:40;;;;;;;2.17;0.88;;;5.50;90.50;;;;;;5101115;27;20526;-66
2023/02/25 02:58:28;;;;;;;2.60;0.80;;;5.40;90.40;;;;;;5100159;27;20055;-67
2023/02/25 03:01:01;;;;;;;0.60;0.60;;;5.50;90.50;;;;;;5112657;27;20039;-66
2023/02/25 03:03:38;;;;;;;1.85;0.77;;;5.50;90.50;;;;;;5104076;28;20386;-67
2023/02/25 03:06:11;;;;;;;1.85;0.88;;;5.50;90.40;;;;;;5106446;27;20816;-67
2023/02/25 03:08:46;;;;;;;1.00;0.80;;;5.50;90.40;;;;;;5105731;27;20416;-67
2023/02/25 03:11:12;;;;;;;1.38;0.75;;;5.50;90.40;;;;;;5110113;27;20020;-67
2023/02/25 03:13:38;;;;;;;0.60;0.60;;;5.60;90.40;;;;;;5110124;27;20443;-68
2023/02/25 03:16:09;;;;;;;1.75;0.95;;;5.60;90.40;;;;;;5111687;27;20750;-67
2023/02/25 03:18:43;;;;;;;2.15;1.00;;;5.60;90.40;;;;;;5105788;27;20032;-67
2023/02/25 03:21:19;;;;;;;1.98;1.00;;;5.60;90.40;;;;;;5110481;27;20084;-67
2023/02/25 03:23:46;;;;;;;2.38;0.60;;;5.60;90.40;;;;;;5105468;28;20016;-67
2023/02/25 03:26:27;;;;;;;1.83;0.70;;;5.70;90.40;;;;;;5108927;27;20825;-67
2023/02/25 03:28:53;;;;;;;1.95;1.25;;;5.70;90.30;;;;;;5106372;28;20058;-67
2023/02/25 03:31:33;;;;;;;1.65;0.73;;;5.70;90.30;;;;;;5103442;27;20093;-66
2023/02/25 03:34:07;;;;;;;0.73;0.73;;;5.70;90.30;;;;;;5093648;28;20059;-66
2023/02/25 03:36:48;;;;;;;2.08;1.30;;;5.70;90.30;;;;;;5096417;28;20036;-66
2023/02/25 03:39:19;;;;;;;0.60;0.60;;;5.70;90.30;;;;;;5106420;27;20023;-66
2023/02/25 03:41:50;;;;;;;2.42;0.80;;;5.70;90.30;;;;;;5104692;27;20048;-66
2023/02/25 03:44:21;;;;;;;2.15;0.73;;;5.70;90.30;;;;;;5120013;27;20056;-66
2023/02/25 03:46:47;;;;;;;0.75;0.60;;;5.60;90.30;;;;;;5110219;28;20668;-65
2023/02/25 03:49:19;;;;;;;1.58;0.88;;;5.60;90.30;;;;;;5103298;28;20101;-67
2023/02/25 03:51:47;;;;;;;3.20;1.25;;;5.60;90.40;;;;;;5106107;28;20015;-66
2023/02/25 03:54:15;;;;;;;1.05;0.75;;;5.60;90.40;;;;;;5102819;28;20069;-65
2023/02/25 03:56:47;;;;;;;1.80;0.70;;;5.60;90.50;;;;;;5107742;28;20380;-66
2023/02/25 03:59:13;;;;;;;2.42;0.70;;;5.50;90.40;;;;;;5109086;28;20020;-65
2023/02/25 04:01:40;;;;;;;1.05;0.70;;;5.50;90.40;;;;;;5117536;27;20024;-66
2023/02/25 04:04:06;;;;;;;0.75;0.60;;;5.50;90.50;;;;;;5115495;28;20150;-65
2023/02/25 04:06:32;;;;;;;0.45;0.45;;;5.50;90.50;;;;;;5110179;27;20091;-65
2023/02/25 04:08:57;;;;;;;1.75;0.60;;;5.50;90.50;;;;;;5110879;28;20072;-65
2023/02/25 04:11:23;;;;;;;1.38;0.90;;;5.50;90.50;;;;;;5117345;28;20024;-65
2023/02/25 04:13:49;;;;;;;4.88;0.93;;;5.50;90.50;;;;;;5120715;27;20036;-65
2023/02/25 04:16:14;;;;;;;0.85;0.60;;;5.50;90.40;;;;;;5115997;28;20437;-65
2023/02/25 04:18:40;;;;;;;6.35;1.10;;;5.40;90.40;;;;;;5101928;27;20051;-64
2023/02/25 04:21:07;;;;;;;3.55;0.68;;;5.40;90.40;;;;;;5098923;28;20506;-64
2023/02/25 04:23:33;;;;;;;1.05;0.82;;;5.40;90.40;;;;;;5118502;27;20019;-64
2023/02/25 04:25:59;;;;;;;0.70;0.70;;;5.40;90.40;;;;;;5108973;28;20055;-65
2023/02/25 04:28:25;;;;;;;2.80;1.20;;;5.30;90.40;;;;;;5115062;28;20058;-66
2023/02/25 04:30:50;;;;;;;0.95;0.75;;;5.30;90.50;;;;;;5097315;28;20027;-65
2023/02/25 04:33:16;;;;;;;1.30;0.80;;;5.30;90.50;;;;;;5095481;27;20098;-65
2023/02/25 04:35:43;;;;;;;2.05;0.70;;;5.30;90.50;;;;;;5104659;27;20511;-65
2023/02/25 04:38:08;;;;;;;2.40;0.70;;;5.30;90.50;;;;;;5098962;28;20028;-65
2023/02/25 04:40:34;;;;;;;0.63;0.50;;;5.30;90.60;;;;;;5094824;27;20103;-66
2023/02/25 04:43:00;;;;;;;1.15;0.60;;;5.30;90.60;;;;;;5089465;28;20032;-65
2023/02/25 04:45:26;;;;;;;1.08;0.65;;;5.30;90.50;;;;;;5133340;27;20194;-64
2023/02/25 04:47:53;;;;;;;3.03;0.90;;;5.30;90.50;;;;;;5113595;27;20024;-64
2023/02/25 04:50:19;;;;;;;2.22;0.73;;;5.40;90.50;;;;;;5110495;28;20020;-66
2023/02/25 04:52:45;;;;;;;0.68;0.60;;;5.40;90.50;;;;;;5114297;27;20048;-66
2023/02/25 04:55:11;;;;;;;1.95;0.60;;;5.40;90.50;;;;;;5114813;27;20094;-66
2023/02/25 04:57:41;;;;;;;0.70;0.70;;;5.40;90.50;;;;;;5125574;27;20038;-66
2023/02/25 05:00:27;;;;;;;1.10;0.77;;;5.40;90.50;;;;;;5108750;27;20118;-66
2023/02/25 05:02:53;;;;;;;0.43;0.43;;;5.30;90.50;;;;;;5120864;27;20043;-65
2023/02/25 05:05:18;;;;;;;0.60;0.60;;;5.40;90.50;;;;;;5105966;27;20020;-65
2023/02/25 05:07:44;;;;;;;3.08;1.13;;;5.40;90.50;;;;;;5114910;27;20128;-65
2023/02/25 05:10:13;;;;;;;0.57;0.43;;;5.40;90.50;;;;;;5109708;27;20382;-65
2023/02/25 05:12:38;;;;;;;1.23;0.80;;;5.40;90.50;;;;;;5112097;28;20032;-65
2023/02/25 05:15:05;;;;;;;0.50;0.50;;;5.30;90.40;;;;;;5105571;28;20068;-64
2023/02/25 05:17:31;;;;;;;1.48;0.80;;;5.40;90.40;;;;;;5110977;28;20023;-65
2023/02/25 05:19:57;;;;;;;1.38;0.65;;;5.30;90.40;;;;;;5103568;28;20054;-65
2023/02/25 05:22:23;;;;;;;1.80;0.93;;;5.30;90.40;;;;;;5096603;28;20478;-65
2023/02/25 05:24:49;;;;;;;3.22;0.80;;;5.30;90.40;;;;;;5094736;28;20567;-65
2023/02/25 05:27:14;;;;;;;3.45;1.23;;;5.30;90.50;;;;;;5112314;28;20031;-65
2023/02/25 05:29:40;;;;;;;4.22;0.98;;;5.30;90.50;;;;;;5103416;28;20107;-66
2023/02/25 05:32:06;;;;;;;2.95;0.98;;;5.30;90.50;;;;;;5093672;28;20024;-65
2023/02/25 05:34:32;;;;;;;2.65;1.00;;;5.30;90.40;;;;;;5095389;28;20058;-65
2023/02/25 05:36:58;;;;;;;2.17;0.90;;;5.30;90.40;;;;;;5102843;28;20020;-66
2023/02/25 05:39:23;;;;;;;2.10;0.80;;;5.30;90.40;;;;;;5103681;27;20514;-64
2023/02/25 05:41:50;;;;;;;1.63;0.98;;;5.30;90.30;;;;;;5106836;28;20020;-65
2023/02/25 05:44:16;;;;;;;2.33;0.80;;;5.30;90.30;;;;;;5098476;28;20031;-64
2023/02/25 05:46:41;;;;;;;1.17;0.80;;;5.20;90.30;;;;;;5103138;27;20091;-65
2023/02/25 05:49:08;;;;;;;1.83;1.20;;;5.20;90.30;;;;;;5110329;28;20019;-65
2023/02/25 05:51:33;;;;;;;1.42;0.70;;;5.20;90.30;;;;;;5104186;27;20031;-65
2023/02/25 05:53:59;;;;;;;2.72;1.10;;;5.20;90.30;;;;;;5110163;27;20039;-65
2023/02/25 05:56:26;;;;;;;4.00;1.05;;;5.20;90.30;;;;;;5112753;27;20098;-65
2023/02/25 05:58:53;;;;;;;2.42;0.98;;;5.20;90.30;;;;;;5094570;27;20044;-64
2023/02/25 06:01:21;;;;;;;1.48;1.38;;;5.20;90.30;;;;;;5110491;27;20031;-65
2023/02/25 06:03:48;;;;;;;0.63;0.63;;;5.20;90.40;;;;;;5109892;27;20035;-65
2023/02/25 06:06:16;;;;;;;1.88;0.80;;;5.20;90.40;;;;;;5105858;27;20394;-66
2023/02/25 06:08:43;;;;;;;1.40;0.85;;;5.20;90.40;;;;;;5109619;27;20020;-65
2023/02/25 06:11:13;;;;;;;0.90;0.70;;;5.20;90.30;;;;;;5100362;27;20477;-66
2023/02/25 06:13:38;;;;;;;1.33;0.75;;;5.20;90.40;;;;;;5113813;27;20017;-64
2023/02/25 06:16:04;;;;;;;0.60;0.60;;;5.20;90.30;;;;;;5108659;27;20035;-65
2023/02/25 06:18:35;;;;;;;1.17;0.63;;;5.30;90.30;;;;;;5116510;27;20019;-64
2023/02/25 06:21:06;;;;;;;0.82;0.68;;;5.30;90.30;;;;;;5116942;27;20110;-64
2023/02/25 06:23:34;;;;;;;0.63;0.63;;;5.30;90.30;;;;;;5122426;27;20045;-64
2023/02/25 06:25:59;;;;;;;0.60;0.60;;;5.30;90.20;;;;;;5108263;27;20688;-65
2023/02/25 06:28:25;;;;;;;2.40;0.77;;;5.30;90.20;;;;;;5119696;27;20027;-64
2023/02/25 06:30:51;;;;;;;1.20;1.00;;;5.30;90.20;;;;;;5110450;27;20076;-64
2023/02/25 06:33:16;;;;;;;0.60;0.60;;;5.40;90.20;;;;;;5114742;27;20497;-64
2023/02/25 06:35:42;;;;;;;1.85;0.95;;;5.40;90.20;;;;;;5112889;27;20034;-65
2023/02/25 06:38:08;;;;;;;0.80;0.68;;;5.40;90.20;;;;;;5100585;28;20023;-65
2023/02/25 06:40:33;;;;;;;0.88;0.70;;;5.40;90.10;;;;;;5097893;27;20122;-65
2023/02/25 06:42:59;;;;;;;1.08;0.65;;;5.40;90.10;;;;;;5114185;27;20037;-65
2023/02/25 06:45:25;;;;;;;1.55;0.77;;;5.40;90.10;;;;;;5103374;28;20043;-64
2023/02/25 06:47:50;;;;;;;2.58;0.90;;;5.40;90.10;;;;;;5115032;27;20019;-65
2023/02/25 06:50:16;;;;;;;4.68;1.00;;;5.40;90.10;;;;;;5110811;27;20087;-66
2023/02/25 06:52:42;;;;;;;2.85;1.10;;;5.30;90.00;;;;;;5120516;27;20526;-65
2023/02/25 06:55:09;;;;;;;5.20;0.88;;;5.20;90.00;;;;;;5098609;28;20099;-65
2023/02/25 06:57:35;;;;;;;2.45;0.90;;;5.20;90.10;;;;;;5114957;27;20110;-65
2023/02/25 07:00:01;;;;;;;1.23;0.80;;;5.10;90.10;;;;;;5116787;27;20425;-66
2023/02/25 07:02:26;;;;;;;1.75;1.05;;;5.10;90.50;;;;;;5120275;27;20031;-65
2023/02/25 07:04:53;;;;;;;3.35;0.77;;;5.10;90.30;;;;;;5102504;28;20051;-65
2023/02/25 07:07:19;;;;;;;0.77;0.73;;;5.10;90.30;;;;;;5110149;28;20363;-65
2023/02/25 07:09:45;;;;;;;1.92;0.70;;;5.10;90.30;;;;;;5102466;28;20023;-66
2023/02/25 07:12:11;;;;;;;2.22;0.70;;;5.10;90.30;;;;;;5102182;28;20028;-65
2023/02/25 07:14:37;;;;;;;1.67;0.73;;;5.10;90.30;;;;;;5090658;28;20035;-65
2023/02/25 07:17:02;;;;;;;1.45;0.90;;;5.10;90.30;;;;;;5092716;28;20024;-65
2023/02/25 07:19:28;;;;;;;3.20;0.88;;;5.20;90.40;;;;;;5090625;28;20012;-65
2023/02/25 07:21:54;;;;;;;2.10;0.90;;;5.20;90.30;;;;;;5099890;28;20493;-66
2023/02/25 07:24:20;;;;;;;0.70;0.70;;;5.20;90.30;;;;;;5105833;27;20501;-64
2023/02/25 07:26:45;;;;;;;1.48;0.65;;;5.20;90.30;;;;;;5105886;27;20471;-67
2023/02/25 07:29:12;;;;;;;2.92;0.90;;;5.20;90.30;;;;;;5109106;28;20098;-66
2023/02/25 07:31:38;;;;;;;2.05;0.70;;;5.20;90.30;;;;;;5115658;27;20088;-65
2023/02/25 07:34:04;;;;;;;2.70;0.82;;;5.30;90.30;;;;;;5109028;27;20035;-65
2023/02/25 07:36:32;;;;;;;0.82;0.73;;;5.30;90.20;;;;;;5107392;27;20460;-66
2023/02/25 07:38:58;;;;;;;0.70;0.68;;;5.40;90.30;;;;;;5104957;27;20032;-65
2023/02/25 07:41:24;;;;;;;4.53;0.90;;;5.40;90.20;;;;;;5112893;28;20069;-66
2023/02/25 07:43:49;;;;;;;0.70;0.70;;;5.50;90.20;;;;;;5116037;27;20486;-65
2023/02/25 07:46:15;;;;;;;2.53;0.80;;;5.50;90.20;;;;;;5116301;27;20363;-65
2023/02/25 07:48:41;;;;;;;1.75;0.70;;;5.50;90.10;;;;;;5113639;27;20023;-66
2023/02/25 07:51:12;;;;;;;1.05;0.75;;;5.60;90.10;;;;;;5112160;27;20057;-65
2023/02/25 07:53:38;;;;;;;1.13;0.60;;;5.60;90.10;;;;;;5107983;27;20023;-64
2023/02/25 07:56:05;;;;;;;1.67;0.75;;;5.70;90.10;;;;;;5110673;27;20019;-64
2023/02/25 07:58:31;;;;;;;0.93;0.68;;;5.70;90.00;;;;;;5106858;28;20031;-66
2023/02/25 08:00:57;;;;;;;1.63;0.70;;;5.80;90.00;;;;;;5113256;28;20046;-65
2023/02/25 08:03:23;;;;;;;0.50;0.50;;;5.90;90.00;;;;;;5117351;27;20030;-68
2023/02/25 08:05:53;;;;;;;0.75;0.75;;;5.90;89.80;;;;;;5119374;27;20027;-65
2023/02/25 08:08:21;;;;;;;0.55;0.55;;;6.00;89.80;;;;;;5099981;28;20023;-65
2023/02/25 08:10:48;;;;;;;2.50;0.70;;;6.10;89.60;;;;;;5103907;28;20027;-66
2023/02/25 08:13:13;;;;;;;1.00;0.57;;;6.10;89.40;;;;;;5103206;28;20028;-66
2023/02/25 08:15:43;;;;;;;3.90;0.57;;;6.20;89.40;;;;;;5103302;28;20477;-64
2023/02/25 08:18:09;;;;;;;0.82;0.60;;;6.20;89.30;;;;;;5103445;28;20036;-64
2023/02/25 08:20:35;;;;;;;0.85;0.60;;;6.20;89.30;;;;;;5097905;28;20031;-64
2023/02/25 08:23:00;;;;;;;2.28;0.80;;;6.30;89.40;;;;;;5101272;28;20042;-64
2023/02/25 08:25:26;;;;;;;3.20;0.73;;;6.30;89.30;;;;;;5097479;28;20031;-64
2023/02/25 08:27:52;;;;;;;4.70;1.25;;;6.30;89.20;;;;;;5107666;28;20028;-67
2023/02/25 08:30:18;;;;;;;2.83;0.88;;;6.20;89.10;;;;;;5121107;27;20076;-66
2023/02/25 08:32:45;;;;;;;0.85;0.70;;;6.20;89.30;;;;;;5115024;27;20031;-66
2023/02/25 08:35:11;;;;;;;1.73;0.75;;;6.20;89.20;;;;;;5127272;27;20081;-66
2023/02/25 08:37:36;;;;;;;0.60;0.60;;;6.20;89.30;;;;;;5116964;27;20031;-68
2023/02/25 08:40:09;;;;;;;2.17;0.70;;;6.20;89.40;;;;;;5122751;27;20036;-67
2023/02/25 08:42:36;;;;;;;2.22;0.73;;;6.20;89.30;;;;;;5117866;27;20031;-66
2023/02/25 08:45:02;;;;;;;0.55;0.55;;;6.20;89.20;;;;;;5102847;27;20016;-65
2023/02/25 08:47:28;;;;;;;1.60;0.60;;;6.20;89.30;;;;;;5123400;27;20023;-64
2023/02/25 08:49:54;;;;;;;2.95;0.77;;;6.30;89.30;;;;;;5107977;28;20022;-64
2023/02/25 08:52:19;;;;;;;0.73;0.63;;;6.30;89.20;;;;;;5120943;27;20089;-63
2023/02/25 08:54:45;;;;;;;2.20;0.80;;;6.30;89.80;;;;;;5107989;27;20015;-64
2023/02/25 08:57:10;;;;;;;1.20;0.80;;;6.30;89.00;;;;;;5110840;27;20031;-63
2023/02/25 08:59:36;;;;;;;1.95;0.95;;;6.40;88.90;;;;;;5103911;27;20655;-65
2023/02/25 09:02:09;;;;;;;1.65;0.80;;;6.40;88.80;;;;;;5100934;27;20046;-64
2023/02/25 09:04:34;;;;;;;0.40;0.40;;;6.30;88.70;;;;;;5106820;27;20491;-65
2023/02/25 09:07:01;;;;;;;1.30;0.68;;;6.30;88.70;;;;;;5112629;27;20020;-65
2023/02/25 09:09:26;;;;;;;0.50;0.50;;;6.30;88.80;;;;;;5105571;28;20107;-65
2023/02/25 09:11:53;;;;;;;1.00;0.50;;;6.20;88.60;;;;;;5114285;27;20148;-65
2023/02/25 09:14:19;;;;;;;0.65;0.60;;;6.30;88.90;;;;;;5104052;27;20455;-65
2023/02/25 09:16:45;;;;;;;2.60;0.57;;;6.30;88.80;;;;;;5116262;27;20493;-65
2023/02/25 09:19:11;;;;;;;1.75;0.60;;;6.30;88.60;;;;;;5115377;27;20031;-65
2023/02/25 09:21:39;;;;;;;0.80;0.63;;;6.30;88.60;;;;;;5101335;28;20032;-65
2023/02/25 09:24:05;;;;;;;0.50;0.50;;;6.30;88.60;;;;;;5100934;28;20391;-65
2023/02/25 09:26:31;;;;;;;0.50;0.50;;;6.40;88.60;;;;;;5102907;28;20027;-66
2023/02/25 09:28:59;;;;;;;0.60;0.60;;;6.50;88.40;;;;;;5100529;28;20064;-66
2023/02/25 09:31:25;;;;;;;0.82;0.70;;;6.50;88.20;;;;;;5100652;28;20030;-65
2023/02/25 09:33:51;;;;;;;0.60;0.60;;;6.60;88.10;;;;;;5103172;27;20023;-66
2023/02/25 09:36:19;;;;;;;1.65;0.60;;;6.60;88.00;;;;;;5109915;27;20055;-65
2023/02/25 09:38:47;;;;;;;0.82;0.70;;;6.60;87.80;;;;;;5098919;28;20028;-64
2023/02/25 09:41:21;;;;;;;2.72;0.82;;;6.50;87.60;;;;;;5102185;28;20031;-65
2023/02/25 09:43:50;;;;;;;0.55;0.55;;;6.50;87.70;;;;;;5101351;28;20279;-65
2023/02/25 09:46:20;;;;;;;2.13;0.73;;;6.50;87.60;;;;;;5101555;28;20016;-66
2023/02/25 09:48:58;;;;;;;0.70;0.70;;;6.60;87.80;;;;;;5101075;28;20028;-64
2023/02/25 09:51:34;;;;;;;0.70;0.70;;;6.60;87.70;;;;;;5107895;27;20075;-65
2023/02/25 09:54:22;;;;;;;1.85;0.88;;;6.70;87.70;;;;;;5102639;27;20469;-66
2023/02/25 09:56:49;;;;;;;0.60;0.60;;;6.80;87.40;;;;;;5102683;28;20031;-66
2023/02/25 09:59:20;;;;;;;0.60;0.60;;;6.90;87.20;;;;;;5101898;28;20039;-65
2023/02/25 10:01:54;;;;;;;0.50;0.50;;;7.00;87.00;;;;;;5102577;27;20041;-64
2023/02/25 10:04:32;;;;;;;0.77;0.45;;;7.10;87.00;;;;;;5109798;27;20114;-65
2023/02/25 10:07:06;;;;;;;0.68;0.68;;;7.10;86.70;;;;;;5101046;28;20031;-65
2023/02/25 10:09:52;;;;;;;0.90;0.60;;;7.10;86.50;;;;;;5103742;27;20401;-65
2023/02/25 10:12:30;;;;;;;0.50;0.50;;;7.10;86.30;;;;;;5109665;27;20024;-65
2023/02/25 10:15:20;;;;;;;1.65;0.55;;;7.10;85.90;;;;;;5100996;28;20016;-65
2023/02/25 10:17:49;;;;;;;0.55;0.55;;;7.00;86.00;;;;;;5099385;28;20016;-66
2023/02/25 10:20:33;;;;;;;0.60;0.60;;;7.10;86.20;;;;;;5099946;28;20363;-66
2023/02/25 10:23:35;;;;;;;0.50;0.50;;;7.20;86.20;;;;;;5099890;28;20036;-66
2023/02/25 10:26:17;;;;;;;1.60;0.82;;;7.30;85.40;;;;;;5094189;27;20039;-65
2023/02/25 10:28:43;;;;;;;;;;;7.40;85.50;;;;;;5103766;27;20038;-65
2023/02/25 10:31:17;;;;;;;1.00;0.73;;;7.50;84.60;;;;;;5100730;27;19908;-65
2023/02/25 10:33:44;;;;;;;1.95;0.75;;;7.60;84.40;;;;;;5104989;27;20367;-66
2023/02/25 10:36:23;;;;;;;4.57;0.90;;;7.70;83.80;;;;;;5103408;27;20027;-65
2023/02/25 10:38:51;;;;;;;2.60;0.75;;;7.60;83.10;;;;;;5100666;27;20028;-66
2023/02/25 10:41:21;;;;;;;1.00;0.70;;;7.50;82.60;;;;;;5103298;27;20039;-66
2023/02/25 10:43:49;;;;;;;1.50;0.93;;;7.40;82.70;;;;;;5101927;27;20028;-66
2023/02/25 10:46:28;;;;;;;1.05;0.73;;;7.40;82.50;;;;;;5104414;27;20023;-65
2023/02/25 10:49:02;;;;;;;3.92;0.90;;;7.10;80.50;;;;;;5098228;27;20020;-65
2023/02/25 10:51:28;;;;;;;0.90;0.70;;;6.70;80.30;;;;;;5101756;27;20031;-65
2023/02/25 10:53:57;;;;;;;1.63;0.63;;;6.40;80.70;;;;;;5098104;27;20098;-65
2023/02/25 10:56:25;;;;;;;0.73;0.60;;;6.20;81.30;;;;;;5104326;27;20038;-67
2023/02/25 10:59:04;;;;;;;1.08;0.77;;;6.10;81.60;;;;;;5105035;27;20429;-66
2023/02/25 11:01:39;;;;;;;2.38;0.68;;;6.00;81.50;;;;;;5099276;27;20027;-66
2023/02/25 11:04:10;;;;;;;0.98;0.70;;;5.90;81.80;;;;;;5101683;27;20595;-66
2023/02/25 11:06:37;;;;;;;1.85;0.80;;;6.00;82.30;;;;;;5100864;27;20020;-65
2023/02/25 11:09:25;;;;;;;2.28;0.88;;;5.90;82.00;;;;;;5100666;27;20050;-66
2023/02/25 11:12:16;;;;;;;0.60;0.60;;;6.00;82.00;;;;;;5099897;27;20405;-67
2023/02/25 11:14:42;;;;;;;0.60;0.50;;;6.00;81.90;;;;;;5100067;27;20032;-66
2023/02/25 11:17:21;;;;;;;1.98;0.70;;;6.00;82.00;;;;;;5103016;27;20024;-66
2023/02/25 11:19:51;;;;;;;0.75;0.75;;;6.10;82.30;;;;;;5102560;27;20687;-65
2023/02/25 11:22:20;;;;;;;0.80;0.65;;;6.20;82.20;;;;;;5103789;27;20020;-65
2023/02/25 11:25:01;;;;;;;0.70;0.70;;;6.30;82.10;;;;;;5098972;27;20027;-65
2023/02/25 11:27:39;;;;;;;1.02;0.70;;;6.40;81.60;;;;;;5100949;27;20065;-66
2023/02/25 11:30:19;;;;;;;2.85;0.80;;;6.40;80.80;;;;;;5103303;27;20559;-66
2023/02/25 11:32:52;;;;;;;1.60;0.90;;;6.50;79.90;;;;;;5105177;27;20030;-66
2023/02/25 11:35:28;;;;;;;0.70;0.70;;;6.60;79.20;;;;;;5108146;27;20035;-66
2023/02/25 11:37:57;;;;;;;3.00;0.90;;;6.60;78.10;;;;;;5106767;27;20638;-65
2023/02/25 11:40:28;;;;;;;1.98;0.75;;;6.80;78.70;;;;;;5102973;27;20039;-65
2023/02/25 11:43:18;;;;;;;0.60;0.60;;;7.00;78.50;;;;;;5103069;28;20472;-65
2023/02/25 11:45:59;;;;;;;1.80;0.80;;;7.20;78.50;;;;;;5099175;27;20391;-65
2023/02/25 11:48:36;;;;;;;2.40;0.82;;;7.40;77.50;;;;;;5106226;28;20016;-66
2023/02/25 11:51:26;;;;;;;0.77;0.70;;;7.40;75.90;;;;;;5107391;27;20382;-67
2023/02/25 11:54:07;;;;;;;3.22;0.63;;;7.40;73.40;;;;;;5108336;28;20106;-66
2023/02/25 11:56:49;;;;;;;2.05;0.60;;;7.60;73.80;;;;;;5105964;28;20473;-65
2023/02/25 11:59:28;;;;;;;;;;;7.80;73.30;;;;;;5111869;28;20076;-64
2023/02/25 12:01:56;;;;;;;1.00;0.75;;;7.80;72.70;;;;;;5109321;27;20396;-66
2023/02/25 12:04:37;;;;;;;2.35;1.13;;;7.80;72.00;;;;;;5112652;27;20031;-65
2023/02/25 12:07:14;;;;;;;1.05;0.80;;;7.60;70.70;;;;;;5112843;27;20020;-66
2023/02/25 12:10:30;;;;;;;0.95;0.80;;;7.60;71.80;;;;;;5111567;27;20019;-66
2023/02/25 12:13:17;;;;;;;1.80;0.88;;;7.70;71.80;;;;;;5080999;27;20039;-66
2023/02/25 12:16:12;;;;;;;1.45;1.00;;;7.80;68.60;;;;;;5108259;27;20024;-67
2023/02/25 12:19:11;;;;;;;0.90;0.68;;;7.90;70.20;;;;;;5110118;27;20051;-67
2023/02/25 12:21:54;;;;;;;1.52;0.80;;;8.00;69.90;;;;;;5107932;27;20040;-67
2023/02/25 12:24:55;;;;;;;1.85;1.17;;;8.10;69.90;;;;;;5106916;27;20462;-65
2023/02/25 12:27:56;;;;;;;1.50;0.77;;;8.30;70.50;;;;;;5103169;27;20024;-66
2023/02/25 12:30:34;;;;;;;3.30;1.00;;;8.30;70.30;;;;;;5103920;28;20474;-65
2023/02/25 12:33:37;;;;;;;0.75;0.75;;;8.20;70.00;;;;;;5106251;28;20027;-66
2023/02/25 12:36:35;;;;;;;2.63;1.00;;;8.10;69.40;;;;;;5102892;28;20027;-67
2023/02/25 12:39:07;;;;;;;0.88;0.80;;;8.00;69.70;;;;;;5106801;28;20044;-67
2023/02/25 12:42:04;;;;;;;1.90;0.90;;;7.80;68.70;;;;;;5108359;27;20068;-66
2023/02/25 12:44:55;;;;;;;1.63;1.13;;;7.60;68.70;;;;;;5102232;27;20055;-66
2023/02/25 12:47:57;;;;;;;0.85;0.70;;;7.50;68.80;;;;;;5103607;27;20035;-66
2023/02/25 12:50:48;;;;;;;3.28;0.60;;;7.60;69.30;;;;;;5104797;27;20035;-66
2023/02/25 12:53:25;;;;;;;1.95;1.05;;;8.00;69.70;;;;;;5100874;27;21247;-67
2023/02/25 12:56:14;;;;;;;0.70;0.70;;;8.40;68.70;;;;;;5106456;27;20031;-66
2023/02/25 12:59:06;;;;;;;1.00;0.60;;;8.30;67.40;;;;;;5099442;27;20022;-67
2023/02/25 13:02:17;;;;;;;1.08;0.75;;;8.10;67.80;;;;;;5105125;27;20019;-65
2023/02/25 13:04:58;;;;;;;3.95;0.73;;;7.90;66.90;;;;;;5096805;27;20115;-67
2023/02/25 13:07:52;;;;;;;1.17;0.70;;;7.90;67.80;;;;;;5103168;28;20635;-65
2023/02/25 13:10:38;;;;;;;0.68;0.57;;;8.10;68.50;;;;;;5104985;28;20032;-66
2023/02/25 13:13:31;;;;;;;2.05;0.75;;;8.10;67.30;;;;;;5104291;27;20115;-65
2023/02/25 13:16:24;;;;;;;1.67;1.00;;;8.40;66.90;;;;;;5102730;27;20019;-66
2023/02/25 13:19:24;;;;;;;3.47;0.80;;;8.50;65.60;;;;;;5107181;28;20405;-67
2023/02/25 13:22:27;;;;;;;0.90;0.80;;;8.50;66.70;;;;;;5105447;28;20028;-66